aviador You're here:

KBTL Decoded Metar

BATTLE CREEK in MI, USA
Report Time2017-05-30 00:53:00
UTC Time2017-05-30 01:32:35
Flight Rules vfr VFR
Wind290° at 07 kt
W.Decomp.*RWY 31: 6.7 kt HW 1.9 kt LCW
RWY 23: 3.1 kt HW 6.3 kt RCW
W.Rank290° ranks 6
Current wind is below 290° avg. (9.1)
Visibility9999 m
Phenomena:N/A
Clouds:N/A
Expected CloudBase > 4,800 ft AGL from Temp-Dew spread
CeilingNone
Temp19°C (ISA +6)
Dew Point07°C (46% RH)
AAT15.8°C
QNH1011 hPa
Density Alt1,847 ft
Elevation951 ft
Report Wrong Elevation
Raw Report
METAR KBTL 300053Z 29007KT 10SM CLR 19/07 A2986 RMK AO2 SLP106 T01890067
$=

Extra information for KBTL:More info

Metar Taf Metar & Taf Last 4 Metars F.Rules Stats Wind Profile Meteogram Temp Stats Airport Information Weather charts Add Link Nearby VenuesMetar ALERT Operation Metar Decoded Social comments

AIRNAV info for KBTL